sensor_id;sensor_type;location;lat;lon;timestamp;P1;durP1;ratioP1;P2;durP2;ratioP2
34741;SDS011;20968;42.696;23.360;2022-09-09T00:04:24;6.05;;;3.45;;
34741;SDS011;20968;42.696;23.360;2022-09-09T00:09:46;9.10;;;3.25;;
34741;SDS011;20968;42.696;23.360;2022-09-09T00:12:27;4.40;;;3.80;;
34741;SDS011;20968;42.696;23.360;2022-09-09T00:14:59;7.75;;;3.33;;
34741;SDS011;20968;42.696;23.360;2022-09-09T00:28:26;4.57;;;3.88;;
34741;SDS011;20968;42.696;23.360;2022-09-09T00:31:30;8.57;;;4.40;;
34741;SDS011;20968;42.696;23.360;2022-09-09T00:37:19;7.50;;;4.50;;
34741;SDS011;20968;42.696;23.360;2022-09-09T00:40:34;5.20;;;4.22;;
34741;SDS011;20968;42.696;23.360;2022-09-09T01:10:11;5.30;;;4.70;;
34741;SDS011;20968;42.696;23.360;2022-09-09T01:13:43;8.18;;;5.05;;
34741;SDS011;20968;42.696;23.360;2022-09-09T01:35:59;7.32;;;4.78;;
34741;SDS011;20968;42.696;23.360;2022-09-09T03:01:52;7.90;;;6.60;;
34741;SDS011;20968;42.696;23.360;2022-09-09T03:04:32;6.65;;;5.68;;
34741;SDS011;20968;42.696;23.360;2022-09-09T04:08:09;7.97;;;5.63;;
34741;SDS011;20968;42.696;23.360;2022-09-09T04:10:40;8.65;;;7.45;;
34741;SDS011;20968;42.696;23.360;2022-09-09T04:13:07;12.85;;;6.78;;
34741;SDS011;20968;42.696;23.360;2022-09-09T04:15:35;13.98;;;7.97;;
34741;SDS011;20968;42.696;23.360;2022-09-09T04:18:09;14.52;;;8.77;;
34741;SDS011;20968;42.696;23.360;2022-09-09T04:23:46;9.32;;;6.90;;
34741;SDS011;20968;42.696;23.360;2022-09-09T04:26:14;9.18;;;6.78;;
34741;SDS011;20968;42.696;23.360;2022-09-09T04:28:40;10.65;;;6.50;;
34741;SDS011;20968;42.696;23.360;2022-09-09T04:31:10;7.78;;;6.05;;
34741;SDS011;20968;42.696;23.360;2022-09-09T04:33:44;12.40;;;6.00;;
34741;SDS011;20968;42.696;23.360;2022-09-09T04:36:11;9.50;;;6.07;;
34741;SDS011;20968;42.696;23.360;2022-09-09T04:38:50;7.25;;;6.50;;
34741;SDS011;20968;42.696;23.360;2022-09-09T04:55:03;8.63;;;5.15;;
34741;SDS011;20968;42.696;23.360;2022-09-09T04:57:29;9.50;;;5.63;;
34741;SDS011;20968;42.696;23.360;2022-09-09T05:43:47;8.68;;;5.40;;
34741;SDS011;20968;42.696;23.360;2022-09-09T05:49:11;12.35;;;5.72;;
34741;SDS011;20968;42.696;23.360;2022-09-09T05:58:00;5.97;;;4.07;;
34741;SDS011;20968;42.696;23.360;2022-09-09T06:00:36;6.25;;;4.03;;
34741;SDS011;20968;42.696;23.360;2022-09-09T06:03:03;8.07;;;4.35;;
34741;SDS011;20968;42.696;23.360;2022-09-09T06:12:18;3.97;;;3.55;;
34741;SDS011;20968;42.696;23.360;2022-09-09T06:14:45;3.83;;;3.42;;
34741;SDS011;20968;42.696;23.360;2022-09-09T06:17:11;3.22;;;2.92;;
34741;SDS011;20968;42.696;23.360;2022-09-09T06:19:42;5.72;;;3.17;;
34741;SDS011;20968;42.696;23.360;2022-09-09T06:22:08;3.60;;;3.30;;
34741;SDS011;20968;42.696;23.360;2022-09-09T06:24:49;4.10;;;3.20;;
34741;SDS011;20968;42.696;23.360;2022-09-09T06:27:17;6.20;;;2.78;;
34741;SDS011;20968;42.696;23.360;2022-09-09T06:29:42;8.38;;;2.78;;
34741;SDS011;20968;42.696;23.360;2022-09-09T06:35:36;5.32;;;3.20;;
34741;SDS011;20968;42.696;23.360;2022-09-09T06:38:02;9.93;;;3.25;;
34741;SDS011;20968;42.696;23.360;2022-09-09T06:40:28;5.10;;;3.35;;
34741;SDS011;20968;42.696;23.360;2022-09-09T06:43:09;7.80;;;3.85;;
34741;SDS011;20968;42.696;23.360;2022-09-09T06:45:42;3.20;;;2.90;;
34741;SDS011;20968;42.696;23.360;2022-09-09T06:48:07;6.45;;;3.90;;
34741;SDS011;20968;42.696;23.360;2022-09-09T06:50:33;10.82;;;3.60;;
34741;SDS011;20968;42.696;23.360;2022-09-09T06:52:59;3.33;;;2.80;;
34741;SDS011;20968;42.696;23.360;2022-09-09T06:55:25;4.25;;;3.25;;
34741;SDS011;20968;42.696;23.360;2022-09-09T06:57:50;5.07;;;2.83;;
34741;SDS011;20968;42.696;23.360;2022-09-09T07:00:16;5.30;;;3.13;;
34741;SDS011;20968;42.696;23.360;2022-09-09T07:02:41;3.13;;;2.60;;
34741;SDS011;20968;42.696;23.360;2022-09-09T07:07:50;4.57;;;2.78;;
34741;SDS011;20968;42.696;23.360;2022-09-09T07:10:17;3.33;;;2.60;;
34741;SDS011;20968;42.696;23.360;2022-09-09T07:12:43;5.93;;;2.72;;
34741;SDS011;20968;42.696;23.360;2022-09-09T07:15:09;9.25;;;2.65;;
34741;SDS011;20968;42.696;23.360;2022-09-09T07:17:35;3.20;;;2.80;;
34741;SDS011;20968;42.696;23.360;2022-09-09T07:20:00;3.85;;;2.67;;
34741;SDS011;20968;42.696;23.360;2022-09-09T07:22:27;2.70;;;2.20;;
34741;SDS011;20968;42.696;23.360;2022-09-09T07:24:53;6.13;;;2.65;;
34741;SDS011;20968;42.696;23.360;2022-09-09T07:27:22;8.63;;;4.00;;
34741;SDS011;20968;42.696;23.360;2022-09-09T07:29:47;3.13;;;2.33;;
34741;SDS011;20968;42.696;23.360;2022-09-09T07:32:13;2.80;;;2.35;;
34741;SDS011;20968;42.696;23.360;2022-09-09T07:34:38;8.20;;;2.20;;
34741;SDS011;20968;42.696;23.360;2022-09-09T07:37:03;4.05;;;2.70;;
34741;SDS011;20968;42.696;23.360;2022-09-09T07:39:29;3.83;;;2.40;;
34741;SDS011;20968;42.696;23.360;2022-09-09T07:42:14;4.20;;;3.55;;
34741;SDS011;20968;42.696;23.360;2022-09-09T07:55:04;4.90;;;2.65;;
34741;SDS011;20968;42.696;23.360;2022-09-09T07:57:39;6.25;;;2.30;;
34741;SDS011;20968;42.696;23.360;2022-09-09T08:00:05;5.28;;;2.90;;
34741;SDS011;20968;42.696;23.360;2022-09-09T08:02:31;4.97;;;2.22;;
34741;SDS011;20968;42.696;23.360;2022-09-09T08:04:56;5.57;;;2.97;;
34741;SDS011;20968;42.696;23.360;2022-09-09T08:10:19;7.00;;;2.95;;
34741;SDS011;20968;42.696;23.360;2022-09-09T08:12:53;5.18;;;3.63;;
34741;SDS011;20968;42.696;23.360;2022-09-09T08:15:22;4.55;;;2.83;;
34741;SDS011;20968;42.696;23.360;2022-09-09T08:17:53;7.47;;;2.78;;
34741;SDS011;20968;42.696;23.360;2022-09-09T08:23:01;4.60;;;2.97;;
34741;SDS011;20968;42.696;23.360;2022-09-09T08:25:29;7.90;;;2.60;;
34741;SDS011;20968;42.696;23.360;2022-09-09T08:30:43;3.90;;;2.63;;
34741;SDS011;20968;42.696;23.360;2022-09-09T08:33:30;3.10;;;2.60;;
34741;SDS011;20968;42.696;23.360;2022-09-09T08:36:05;4.47;;;3.10;;
34741;SDS011;20968;42.696;23.360;2022-09-09T08:58:21;3.22;;;2.92;;
34741;SDS011;20968;42.696;23.360;2022-09-09T09:12:00;3.97;;;2.97;;
34741;SDS011;20968;42.696;23.360;2022-09-09T09:14:34;6.53;;;2.78;;
34741;SDS011;20968;42.696;23.360;2022-09-09T09:19:44;7.93;;;3.40;;
34741;SDS011;20968;42.696;23.360;2022-09-09T09:31:19;6.65;;;3.08;;
34741;SDS011;20968;42.696;23.360;2022-09-09T09:33:45;4.30;;;3.88;;
34741;SDS011;20968;42.696;23.360;2022-09-09T09:36:32;3.42;;;2.53;;
34741;SDS011;20968;42.696;23.360;2022-09-09T09:41:52;4.53;;;2.35;;
34741;SDS011;20968;42.696;23.360;2022-09-09T09:44:32;4.88;;;2.88;;
34741;SDS011;20968;42.696;23.360;2022-09-09T09:47:10;3.15;;;2.72;;
34741;SDS011;20968;42.696;23.360;2022-09-09T09:49:36;6.18;;;2.88;;
34741;SDS011;20968;42.696;23.360;2022-09-09T09:52:04;5.38;;;3.20;;
34741;SDS011;20968;42.696;23.360;2022-09-09T09:58:01;4.07;;;2.63;;
34741;SDS011;20968;42.696;23.360;2022-09-09T10:00:29;2.78;;;2.55;;
34741;SDS011;20968;42.696;23.360;2022-09-09T10:02:59;3.30;;;2.72;;
34741;SDS011;20968;42.696;23.360;2022-09-09T10:06:08;4.25;;;3.20;;
34741;SDS011;20968;42.696;23.360;2022-09-09T10:19:04;6.82;;;3.00;;
34741;SDS011;20968;42.696;23.360;2022-09-09T10:24:43;8.23;;;3.65;;
34741;SDS011;20968;42.696;23.360;2022-09-09T10:30:23;3.65;;;2.88;;
34741;SDS011;20968;42.696;23.360;2022-09-09T10:32:57;10.98;;;3.53;;
34741;SDS011;20968;42.696;23.360;2022-09-09T10:42:16;7.10;;;3.47;;
34741;SDS011;20968;42.696;23.360;2022-09-09T10:47:53;8.63;;;3.93;;
34741;SDS011;20968;42.696;23.360;2022-09-09T10:51:13;7.70;;;4.35;;
34741;SDS011;20968;42.696;23.360;2022-09-09T10:53:52;6.45;;;3.78;;
34741;SDS011;20968;42.696;23.360;2022-09-09T10:56:22;4.93;;;3.97;;
34741;SDS011;20968;42.696;23.360;2022-09-09T10:58:53;9.77;;;4.38;;
34741;SDS011;20968;42.696;23.360;2022-09-09T11:07:09;6.22;;;4.35;;
34741;SDS011;20968;42.696;23.360;2022-09-09T11:09:40;7.05;;;4.40;;
34741;SDS011;20968;42.696;23.360;2022-09-09T11:12:13;12.30;;;4.60;;
34741;SDS011;20968;42.696;23.360;2022-09-09T11:15:04;10.13;;;5.03;;
34741;SDS011;20968;42.696;23.360;2022-09-09T11:17:45;9.43;;;5.40;;
34741;SDS011;20968;42.696;23.360;2022-09-09T11:20:17;6.40;;;4.28;;
34741;SDS011;20968;42.696;23.360;2022-09-09T11:22:48;11.70;;;4.65;;
34741;SDS011;20968;42.696;23.360;2022-09-09T11:25:26;8.20;;;4.70;;
34741;SDS011;20968;42.696;23.360;2022-09-09T11:30:57;7.18;;;3.88;;
34741;SDS011;20968;42.696;23.360;2022-09-09T11:42:15;8.65;;;3.97;;
34741;SDS011;20968;42.696;23.360;2022-09-09T11:44:45;7.50;;;4.18;;
34741;SDS011;20968;42.696;23.360;2022-09-09T11:47:30;12.27;;;4.50;;
34741;SDS011;20968;42.696;23.360;2022-09-09T11:52:41;13.05;;;4.18;;
34741;SDS011;20968;42.696;23.360;2022-09-09T11:55:27;4.82;;;4.15;;
34741;SDS011;20968;42.696;23.360;2022-09-09T11:58:00;9.68;;;4.40;;
34741;SDS011;20968;42.696;23.360;2022-09-09T12:00:49;6.15;;;4.70;;
34741;SDS011;20968;42.696;23.360;2022-09-09T12:05:58;6.35;;;4.43;;
34741;SDS011;20968;42.696;23.360;2022-09-09T12:08:28;9.48;;;4.78;;
34741;SDS011;20968;42.696;23.360;2022-09-09T12:10:55;9.10;;;4.68;;
34741;SDS011;20968;42.696;23.360;2022-09-09T12:13:23;7.97;;;3.80;;
34741;SDS011;20968;42.696;23.360;2022-09-09T12:19:21;5.28;;;4.35;;
34741;SDS011;20968;42.696;23.360;2022-09-09T12:38:11;12.93;;;4.55;;
34741;SDS011;20968;42.696;23.360;2022-09-09T12:40:53;10.40;;;5.05;;
34741;SDS011;20968;42.696;23.360;2022-09-09T12:43:20;7.53;;;4.75;;
34741;SDS011;20968;42.696;23.360;2022-09-09T12:45:48;6.65;;;4.82;;
34741;SDS011;20968;42.696;23.360;2022-09-09T12:48:21;7.13;;;4.43;;
34741;SDS011;20968;42.696;23.360;2022-09-09T12:51:02;7.18;;;4.38;;
34741;SDS011;20968;42.696;23.360;2022-09-09T12:53:35;10.80;;;5.30;;
34741;SDS011;20968;42.696;23.360;2022-09-09T12:56:05;6.35;;;3.88;;
34741;SDS011;20968;42.696;23.360;2022-09-09T12:58:38;6.60;;;3.92;;
34741;SDS011;20968;42.696;23.360;2022-09-09T13:01:05;7.53;;;4.75;;
34741;SDS011;20968;42.696;23.360;2022-09-09T13:03:32;7.63;;;4.60;;
34741;SDS011;20968;42.696;23.360;2022-09-09T13:06:11;5.80;;;4.00;;
34741;SDS011;20968;42.696;23.360;2022-09-09T13:08:39;4.90;;;3.80;;
34741;SDS011;20968;42.696;23.360;2022-09-09T13:11:10;4.75;;;4.10;;
34741;SDS011;20968;42.696;23.360;2022-09-09T13:13:42;5.63;;;4.15;;
34741;SDS011;20968;42.696;23.360;2022-09-09T13:16:32;6.70;;;5.00;;
34741;SDS011;20968;42.696;23.360;2022-09-09T13:19:10;8.40;;;4.93;;
34741;SDS011;20968;42.696;23.360;2022-09-09T13:21:40;11.95;;;5.35;;
34741;SDS011;20968;42.696;23.360;2022-09-09T13:27:00;9.20;;;5.15;;
34741;SDS011;20968;42.696;23.360;2022-09-09T13:29:50;6.13;;;4.82;;
34741;SDS011;20968;42.696;23.360;2022-09-09T13:32:23;8.20;;;4.78;;
34741;SDS011;20968;42.696;23.360;2022-09-09T13:34:58;4.75;;;4.25;;
34741;SDS011;20968;42.696;23.360;2022-09-09T13:39:59;12.02;;;4.93;;
34741;SDS011;20968;42.696;23.360;2022-09-09T13:42:26;11.43;;;5.45;;
34741;SDS011;20968;42.696;23.360;2022-09-09T13:54:14;10.93;;;4.75;;
34741;SDS011;20968;42.696;23.360;2022-09-09T14:00:03;16.27;;;8.32;;
34741;SDS011;20968;42.696;23.360;2022-09-09T14:02:29;11.93;;;4.53;;
34741;SDS011;20968;42.696;23.360;2022-09-09T14:04:56;7.70;;;5.00;;
34741;SDS011;20968;42.696;23.360;2022-09-09T14:07:21;7.50;;;5.43;;
34741;SDS011;20968;42.696;23.360;2022-09-09T14:09:47;7.65;;;5.40;;
34741;SDS011;20968;42.696;23.360;2022-09-09T14:12:15;7.13;;;5.70;;
34741;SDS011;20968;42.696;23.360;2022-09-09T14:14:41;7.20;;;4.90;;
34741;SDS011;20968;42.696;23.360;2022-09-09T14:17:07;9.57;;;7.38;;
34741;SDS011;20968;42.696;23.360;2022-09-09T14:19:34;11.80;;;7.82;;
34741;SDS011;20968;42.696;23.360;2022-09-09T14:21:59;8.27;;;4.65;;
34741;SDS011;20968;42.696;23.360;2022-09-09T14:24:26;12.05;;;4.85;;
34741;SDS011;20968;42.696;23.360;2022-09-09T14:26:52;10.70;;;4.22;;
34741;SDS011;20968;42.696;23.360;2022-09-09T14:29:17;7.95;;;4.43;;
34741;SDS011;20968;42.696;23.360;2022-09-09T14:31:43;6.63;;;4.32;;
34741;SDS011;20968;42.696;23.360;2022-09-09T14:34:08;7.43;;;4.07;;
34741;SDS011;20968;42.696;23.360;2022-09-09T14:36:36;6.53;;;4.55;;
34741;SDS011;20968;42.696;23.360;2022-09-09T14:39:02;11.13;;;5.95;;
34741;SDS011;20968;42.696;23.360;2022-09-09T14:41:29;9.80;;;4.20;;
34741;SDS011;20968;42.696;23.360;2022-09-09T14:43:55;8.50;;;4.35;;
34741;SDS011;20968;42.696;23.360;2022-09-09T14:46:20;5.05;;;3.38;;
34741;SDS011;20968;42.696;23.360;2022-09-09T14:48:46;4.75;;;3.60;;
34741;SDS011;20968;42.696;23.360;2022-09-09T14:51:18;5.55;;;3.78;;
34741;SDS011;20968;42.696;23.360;2022-09-09T14:53:47;10.15;;;4.25;;
34741;SDS011;20968;42.696;23.360;2022-09-09T14:56:14;8.82;;;3.85;;
34741;SDS011;20968;42.696;23.360;2022-09-09T14:58:42;6.20;;;3.95;;
34741;SDS011;20968;42.696;23.360;2022-09-09T15:01:09;10.93;;;4.75;;
34741;SDS011;20968;42.696;23.360;2022-09-09T15:03:39;6.45;;;4.20;;
34741;SDS011;20968;42.696;23.360;2022-09-09T15:06:09;8.15;;;4.30;;
34741;SDS011;20968;42.696;23.360;2022-09-09T15:08:38;5.80;;;4.10;;
34741;SDS011;20968;42.696;23.360;2022-09-09T15:11:05;6.15;;;3.90;;
34741;SDS011;20968;42.696;23.360;2022-09-09T15:13:35;4.20;;;3.70;;
34741;SDS011;20968;42.696;23.360;2022-09-09T15:16:08;12.02;;;4.90;;
34741;SDS011;20968;42.696;23.360;2022-09-09T15:18:35;6.85;;;4.43;;
34741;SDS011;20968;42.696;23.360;2022-09-09T15:21:02;6.22;;;3.60;;
34741;SDS011;20968;42.696;23.360;2022-09-09T15:23:33;5.10;;;3.50;;
34741;SDS011;20968;42.696;23.360;2022-09-09T15:25:59;10.48;;;4.40;;
34741;SDS011;20968;42.696;23.360;2022-09-09T15:28:26;9.40;;;4.10;;
34741;SDS011;20968;42.696;23.360;2022-09-09T15:30:52;6.50;;;4.07;;
34741;SDS011;20968;42.696;23.360;2022-09-09T15:33:19;7.68;;;4.32;;
34741;SDS011;20968;42.696;23.360;2022-09-09T15:35:46;6.28;;;4.50;;
34741;SDS011;20968;42.696;23.360;2022-09-09T15:38:12;6.30;;;4.18;;
34741;SDS011;20968;42.696;23.360;2022-09-09T15:40:38;8.93;;;4.55;;
34741;SDS011;20968;42.696;23.360;2022-09-09T15:43:05;8.18;;;4.30;;
34741;SDS011;20968;42.696;23.360;2022-09-09T15:45:32;4.97;;;4.00;;
34741;SDS011;20968;42.696;23.360;2022-09-09T15:47:58;5.50;;;3.95;;
34741;SDS011;20968;42.696;23.360;2022-09-09T15:50:25;11.82;;;4.05;;
34741;SDS011;20968;42.696;23.360;2022-09-09T15:52:51;11.18;;;5.10;;
34741;SDS011;20968;42.696;23.360;2022-09-09T15:55:20;7.82;;;4.07;;
34741;SDS011;20968;42.696;23.360;2022-09-09T15:57:46;5.80;;;3.70;;
34741;SDS011;20968;42.696;23.360;2022-09-09T16:00:12;8.55;;;3.95;;
34741;SDS011;20968;42.696;23.360;2022-09-09T16:02:38;14.23;;;4.78;;
34741;SDS011;20968;42.696;23.360;2022-09-09T16:05:04;9.95;;;4.32;;
34741;SDS011;20968;42.696;23.360;2022-09-09T16:07:31;7.25;;;3.50;;
34741;SDS011;20968;42.696;23.360;2022-09-09T16:09:56;7.00;;;4.15;;
34741;SDS011;20968;42.696;23.360;2022-09-09T16:12:22;5.40;;;3.67;;
34741;SDS011;20968;42.696;23.360;2022-09-09T16:14:47;6.07;;;3.25;;
34741;SDS011;20968;42.696;23.360;2022-09-09T16:17:13;8.02;;;3.70;;
34741;SDS011;20968;42.696;23.360;2022-09-09T16:19:39;5.93;;;3.35;;
34741;SDS011;20968;42.696;23.360;2022-09-09T16:22:04;9.48;;;4.13;;
34741;SDS011;20968;42.696;23.360;2022-09-09T16:24:31;7.88;;;4.50;;
34741;SDS011;20968;42.696;23.360;2022-09-09T16:26:57;6.20;;;4.47;;
34741;SDS011;20968;42.696;23.360;2022-09-09T16:29:22;5.93;;;4.43;;
34741;SDS011;20968;42.696;23.360;2022-09-09T16:31:49;9.50;;;4.68;;
34741;SDS011;20968;42.696;23.360;2022-09-09T16:34:15;10.23;;;4.53;;
34741;SDS011;20968;42.696;23.360;2022-09-09T16:36:42;7.32;;;4.38;;
34741;SDS011;20968;42.696;23.360;2022-09-09T16:39:10;4.95;;;3.53;;
34741;SDS011;20968;42.696;23.360;2022-09-09T16:41:38;15.15;;;4.03;;
34741;SDS011;20968;42.696;23.360;2022-09-09T16:44:06;8.68;;;5.25;;
34741;SDS011;20968;42.696;23.360;2022-09-09T16:46:34;7.57;;;4.15;;
34741;SDS011;20968;42.696;23.360;2022-09-09T16:49:01;8.75;;;4.13;;
34741;SDS011;20968;42.696;23.360;2022-09-09T16:51:30;8.18;;;4.25;;
34741;SDS011;20968;42.696;23.360;2022-09-09T16:54:12;6.18;;;4.63;;
34741;SDS011;20968;42.696;23.360;2022-09-09T16:57:14;8.68;;;4.80;;
34741;SDS011;20968;42.696;23.360;2022-09-09T16:59:39;8.85;;;4.43;;
34741;SDS011;20968;42.696;23.360;2022-09-09T17:02:05;10.18;;;4.80;;
34741;SDS011;20968;42.696;23.360;2022-09-09T17:04:30;14.77;;;5.82;;
34741;SDS011;20968;42.696;23.360;2022-09-09T17:06:56;7.03;;;4.90;;
34741;SDS011;20968;42.696;23.360;2022-09-09T17:09:22;8.98;;;5.47;;
34741;SDS011;20968;42.696;23.360;2022-09-09T17:11:52;8.50;;;4.18;;
34741;SDS011;20968;42.696;23.360;2022-09-09T17:14:20;7.30;;;5.05;;
34741;SDS011;20968;42.696;23.360;2022-09-09T17:16:46;10.52;;;4.63;;
34741;SDS011;20968;42.696;23.360;2022-09-09T17:19:12;9.18;;;4.60;;
34741;SDS011;20968;42.696;23.360;2022-09-09T17:21:56;14.73;;;5.25;;
34741;SDS011;20968;42.696;23.360;2022-09-09T17:24:28;13.20;;;5.10;;
34741;SDS011;20968;42.696;23.360;2022-09-09T17:26:54;6.95;;;5.68;;
34741;SDS011;20968;42.696;23.360;2022-09-09T17:29:20;10.68;;;5.25;;
34741;SDS011;20968;42.696;23.360;2022-09-09T17:31:46;8.85;;;5.57;;
34741;SDS011;20968;42.696;23.360;2022-09-09T17:34:11;8.85;;;4.72;;
34741;SDS011;20968;42.696;23.360;2022-09-09T17:36:37;8.77;;;5.63;;
34741;SDS011;20968;42.696;23.360;2022-09-09T17:39:03;13.05;;;6.22;;
34741;SDS011;20968;42.696;23.360;2022-09-09T17:41:30;8.13;;;5.00;;
34741;SDS011;20968;42.696;23.360;2022-09-09T17:43:57;9.75;;;5.35;;
34741;SDS011;20968;42.696;23.360;2022-09-09T17:46:24;9.25;;;5.70;;
34741;SDS011;20968;42.696;23.360;2022-09-09T17:48:51;12.40;;;5.63;;
34741;SDS011;20968;42.696;23.360;2022-09-09T17:51:22;15.93;;;5.68;;
34741;SDS011;20968;42.696;23.360;2022-09-09T17:53:52;10.10;;;6.13;;
34741;SDS011;20968;42.696;23.360;2022-09-09T17:56:20;11.40;;;5.63;;
34741;SDS011;20968;42.696;23.360;2022-09-09T17:58:47;14.85;;;6.85;;
34741;SDS011;20968;42.696;23.360;2022-09-09T18:01:15;9.38;;;5.28;;
34741;SDS011;20968;42.696;23.360;2022-09-09T18:03:42;7.95;;;5.35;;
34741;SDS011;20968;42.696;23.360;2022-09-09T18:06:10;10.48;;;4.78;;
34741;SDS011;20968;42.696;23.360;2022-09-09T18:08:38;15.50;;;5.15;;
34741;SDS011;20968;42.696;23.360;2022-09-09T18:11:04;7.47;;;5.80;;
34741;SDS011;20968;42.696;23.360;2022-09-09T18:13:30;8.93;;;5.72;;
34741;SDS011;20968;42.696;23.360;2022-09-09T18:15:56;7.80;;;5.30;;
34741;SDS011;20968;42.696;23.360;2022-09-09T18:18:23;10.20;;;5.65;;
34741;SDS011;20968;42.696;23.360;2022-09-09T18:20:59;8.52;;;5.22;;
34741;SDS011;20968;42.696;23.360;2022-09-09T18:23:29;9.02;;;5.25;;
34741;SDS011;20968;42.696;23.360;2022-09-09T18:25:55;9.25;;;5.03;;
34741;SDS011;20968;42.696;23.360;2022-09-09T18:28:22;12.30;;;6.07;;
34741;SDS011;20968;42.696;23.360;2022-09-09T18:30:48;8.35;;;4.88;;
34741;SDS011;20968;42.696;23.360;2022-09-09T18:33:13;6.53;;;4.50;;
34741;SDS011;20968;42.696;23.360;2022-09-09T18:35:39;7.20;;;4.75;;
34741;SDS011;20968;42.696;23.360;2022-09-09T18:38:05;6.75;;;4.75;;
34741;SDS011;20968;42.696;23.360;2022-09-09T18:40:30;7.30;;;3.90;;
34741;SDS011;20968;42.696;23.360;2022-09-09T18:42:56;5.25;;;4.07;;
34741;SDS011;20968;42.696;23.360;2022-09-09T18:45:22;5.15;;;4.00;;
34741;SDS011;20968;42.696;23.360;2022-09-09T18:47:47;5.05;;;3.75;;
34741;SDS011;20968;42.696;23.360;2022-09-09T18:50:13;4.70;;;4.20;;
34741;SDS011;20968;42.696;23.360;2022-09-09T18:52:39;4.85;;;4.10;;
34741;SDS011;20968;42.696;23.360;2022-09-09T18:55:05;4.45;;;3.85;;
34741;SDS011;20968;42.696;23.360;2022-09-09T18:57:31;5.80;;;3.63;;
34741;SDS011;20968;42.696;23.360;2022-09-09T18:59:57;8.02;;;4.43;;
34741;SDS011;20968;42.696;23.360;2022-09-09T19:02:23;7.25;;;3.55;;
34741;SDS011;20968;42.696;23.360;2022-09-09T19:04:48;4.97;;;3.58;;
34741;SDS011;20968;42.696;23.360;2022-09-09T19:07:14;6.70;;;3.78;;
34741;SDS011;20968;42.696;23.360;2022-09-09T19:09:40;5.65;;;3.85;;
34741;SDS011;20968;42.696;23.360;2022-09-09T19:12:05;7.15;;;4.00;;
34741;SDS011;20968;42.696;23.360;2022-09-09T19:14:31;5.72;;;3.45;;
34741;SDS011;20968;42.696;23.360;2022-09-09T19:16:57;4.68;;;4.18;;
34741;SDS011;20968;42.696;23.360;2022-09-09T19:19:24;6.45;;;4.15;;
34741;SDS011;20968;42.696;23.360;2022-09-09T19:22:07;7.43;;;4.13;;
34741;SDS011;20968;42.696;23.360;2022-09-09T19:24:35;5.28;;;4.53;;
34741;SDS011;20968;42.696;23.360;2022-09-09T19:27:02;8.95;;;3.70;;
34741;SDS011;20968;42.696;23.360;2022-09-09T19:29:31;6.63;;;3.60;;
34741;SDS011;20968;42.696;23.360;2022-09-09T19:31:58;12.18;;;4.57;;
34741;SDS011;20968;42.696;23.360;2022-09-09T19:34:25;12.65;;;4.45;;
34741;SDS011;20968;42.696;23.360;2022-09-09T19:36:51;6.10;;;4.38;;
34741;SDS011;20968;42.696;23.360;2022-09-09T19:39:17;4.28;;;3.47;;
34741;SDS011;20968;42.696;23.360;2022-09-09T19:41:43;4.43;;;3.92;;
34741;SDS011;20968;42.696;23.360;2022-09-09T19:44:10;7.57;;;3.45;;
34741;SDS011;20968;42.696;23.360;2022-09-09T19:49:58;5.68;;;3.67;;
34741;SDS011;20968;42.696;23.360;2022-09-09T19:52:24;4.80;;;3.65;;
34741;SDS011;20968;42.696;23.360;2022-09-09T19:54:49;5.53;;;3.08;;
34741;SDS011;20968;42.696;23.360;2022-09-09T19:57:15;5.13;;;3.40;;
34741;SDS011;20968;42.696;23.360;2022-09-09T19:59:40;6.72;;;3.70;;
34741;SDS011;20968;42.696;23.360;2022-09-09T20:02:06;6.88;;;3.58;;
34741;SDS011;20968;42.696;23.360;2022-09-09T20:04:31;4.07;;;3.38;;
34741;SDS011;20968;42.696;23.360;2022-09-09T20:06:59;3.88;;;3.47;;
34741;SDS011;20968;42.696;23.360;2022-09-09T20:09:24;6.13;;;3.75;;
34741;SDS011;20968;42.696;23.360;2022-09-09T20:11:50;7.35;;;3.28;;
34741;SDS011;20968;42.696;23.360;2022-09-09T20:14:17;3.63;;;3.33;;
34741;SDS011;20968;42.696;23.360;2022-09-09T20:16:43;4.70;;;3.92;;
34741;SDS011;20968;42.696;23.360;2022-09-09T20:19:10;5.07;;;3.13;;
34741;SDS011;20968;42.696;23.360;2022-09-09T20:21:37;7.15;;;3.78;;
34741;SDS011;20968;42.696;23.360;2022-09-09T20:24:05;4.63;;;3.95;;
34741;SDS011;20968;42.696;23.360;2022-09-09T20:26:33;4.05;;;3.50;;
34741;SDS011;20968;42.696;23.360;2022-09-09T20:29:02;4.30;;;3.80;;
34741;SDS011;20968;42.696;23.360;2022-09-09T20:31:30;3.90;;;3.58;;
34741;SDS011;20968;42.696;23.360;2022-09-09T20:34:00;4.25;;;3.85;;
34741;SDS011;20968;42.696;23.360;2022-09-09T20:36:28;4.05;;;3.50;;
34741;SDS011;20968;42.696;23.360;2022-09-09T20:39:00;5.82;;;3.40;;
34741;SDS011;20968;42.696;23.360;2022-09-09T20:41:28;4.03;;;3.60;;
34741;SDS011;20968;42.696;23.360;2022-09-09T20:46:23;6.43;;;4.05;;
34741;SDS011;20968;42.696;23.360;2022-09-09T20:48:51;8.07;;;4.97;;
34741;SDS011;20968;42.696;23.360;2022-09-09T20:51:20;5.53;;;3.88;;
34741;SDS011;20968;42.696;23.360;2022-09-09T20:53:47;5.47;;;4.05;;
34741;SDS011;20968;42.696;23.360;2022-09-09T20:56:25;7.40;;;4.22;;
34741;SDS011;20968;42.696;23.360;2022-09-09T20:58:52;4.72;;;3.58;;
34741;SDS011;20968;42.696;23.360;2022-09-09T21:01:18;6.40;;;4.35;;
34741;SDS011;20968;42.696;23.360;2022-09-09T21:03:45;9.90;;;5.07;;
34741;SDS011;20968;42.696;23.360;2022-09-09T21:06:12;6.15;;;3.60;;
34741;SDS011;20968;42.696;23.360;2022-09-09T21:08:39;11.63;;;4.32;;
34741;SDS011;20968;42.696;23.360;2022-09-09T21:11:05;6.72;;;4.47;;
34741;SDS011;20968;42.696;23.360;2022-09-09T21:13:32;9.23;;;4.28;;
34741;SDS011;20968;42.696;23.360;2022-09-09T21:16:00;10.35;;;6.57;;
34741;SDS011;20968;42.696;23.360;2022-09-09T21:18:25;9.20;;;4.97;;
34741;SDS011;20968;42.696;23.360;2022-09-09T21:20:51;8.77;;;3.85;;
34741;SDS011;20968;42.696;23.360;2022-09-09T21:23:17;15.52;;;6.95;;
34741;SDS011;20968;42.696;23.360;2022-09-09T21:25:43;11.65;;;5.05;;
34741;SDS011;20968;42.696;23.360;2022-09-09T21:28:09;10.02;;;5.57;;
34741;SDS011;20968;42.696;23.360;2022-09-09T21:30:36;10.18;;;4.75;;
34741;SDS011;20968;42.696;23.360;2022-09-09T21:33:02;11.93;;;6.18;;
34741;SDS011;20968;42.696;23.360;2022-09-09T21:35:29;6.75;;;4.38;;
34741;SDS011;20968;42.696;23.360;2022-09-09T21:37:59;6.45;;;4.70;;
34741;SDS011;20968;42.696;23.360;2022-09-09T21:40:24;11.07;;;4.32;;
34741;SDS011;20968;42.696;23.360;2022-09-09T21:42:50;9.80;;;4.80;;
34741;SDS011;20968;42.696;23.360;2022-09-09T21:45:15;9.38;;;4.68;;
34741;SDS011;20968;42.696;23.360;2022-09-09T21:47:43;9.07;;;5.35;;
34741;SDS011;20968;42.696;23.360;2022-09-09T21:50:11;7.50;;;5.10;;
34741;SDS011;20968;42.696;23.360;2022-09-09T21:52:36;7.65;;;4.18;;
34741;SDS011;20968;42.696;23.360;2022-09-09T21:55:02;11.07;;;6.38;;
34741;SDS011;20968;42.696;23.360;2022-09-09T21:57:28;9.38;;;5.20;;
34741;SDS011;20968;42.696;23.360;2022-09-09T21:59:53;9.60;;;5.03;;
34741;SDS011;20968;42.696;23.360;2022-09-09T22:02:18;6.20;;;4.80;;
34741;SDS011;20968;42.696;23.360;2022-09-09T22:04:45;7.80;;;4.55;;
34741;SDS011;20968;42.696;23.360;2022-09-09T22:07:11;8.40;;;5.13;;
34741;SDS011;20968;42.696;23.360;2022-09-09T22:09:37;5.88;;;4.50;;
34741;SDS011;20968;42.696;23.360;2022-09-09T22:12:02;10.57;;;5.68;;
34741;SDS011;20968;42.696;23.360;2022-09-09T22:14:27;5.50;;;4.80;;
34741;SDS011;20968;42.696;23.360;2022-09-09T22:16:53;7.25;;;4.30;;
34741;SDS011;20968;42.696;23.360;2022-09-09T22:19:18;8.68;;;4.90;;
34741;SDS011;20968;42.696;23.360;2022-09-09T22:21:44;7.00;;;5.40;;